Terminal Aerodrome Forecast
Issued by NWS

Home | Current Version | Previous Version | Graphics & Text | Print | Product List | Glossary On
Versions: 1 2 3 4 5 6 7 8 9 10 11 12 13 14 15 16 17
000
FTUS43 KIWX 200500
TAFSBN
TAF
KSBN 200520Z 2006/2106 18009KT P6SM SCT250
     FM201400 21016G23KT P6SM SCT040 SCT120
     FM202000 22014G21KT P6SM VCTS BKN040CB=

USA.gov is the U.S. government's official web portal to all federal, state and local government web resources and services.